createdAt,value
2023-07-21T00:02:43.340Z,88.44
2023-07-21T00:06:20.748Z,88.21
2023-07-21T00:10:00.526Z,88.67
2023-07-21T00:13:37.487Z,88.44
2023-07-21T00:17:13.326Z,88.26
2023-07-21T00:20:51.854Z,89.00
2023-07-21T00:24:28.708Z,89.56
2023-07-21T00:28:09.425Z,89.29
2023-07-21T00:31:48.016Z,89.34
2023-07-21T00:35:21.727Z,89.12
2023-07-21T00:39:00.179Z,88.73
2023-07-21T00:42:37.865Z,88.33
2023-07-21T00:46:14.763Z,89.11
2023-07-21T00:49:54.225Z,89.09
2023-07-21T00:53:31.111Z,89.41
2023-07-21T00:57:08.982Z,90.34
2023-07-21T01:00:45.974Z,90.43
2023-07-21T01:04:24.519Z,90.67
2023-07-21T01:08:06.134Z,90.05
2023-07-21T01:11:38.766Z,90.71
2023-07-21T01:15:16.340Z,91.31
2023-07-21T01:18:55.300Z,90.66
2023-07-21T01:22:48.958Z,90.87
2023-07-21T01:26:12.367Z,90.28
2023-07-21T01:29:47.114Z,91.16
2023-07-21T01:33:27.620Z,90.97
2023-07-21T01:37:03.653Z,89.85
2023-07-21T01:40:41.195Z,91.23
2023-07-21T01:44:17.916Z,92.62
2023-07-21T01:47:57.473Z,91.89
2023-07-21T01:51:36.310Z,92.58
2023-07-21T01:55:14.910Z,91.75
2023-07-21T01:58:49.570Z,91.99
2023-07-21T02:02:27.048Z,93.06
2023-07-21T02:06:19.814Z,92.85
2023-07-21T02:09:41.600Z,93.67
2023-07-21T02:13:18.853Z,93.30
2023-07-21T02:16:56.474Z,93.59
2023-07-21T02:20:34.294Z,93.65
2023-07-21T02:24:12.668Z,93.85
2023-07-21T02:27:50.253Z,94.17
2023-07-21T02:31:27.388Z,94.19
2023-07-21T02:35:07.394Z,92.65
2023-07-21T02:38:46.455Z,93.37
2023-07-21T02:42:22.089Z,93.54
2023-07-21T02:45:57.992Z,94.59
2023-07-21T02:49:35.732Z,93.66
2023-07-21T02:53:14.264Z,93.70
2023-07-21T02:56:52.379Z,93.13
2023-07-21T03:00:29.390Z,92.94
2023-07-21T03:04:06.992Z,92.51
2023-07-21T03:07:44.299Z,92.20
2023-07-21T03:11:23.116Z,92.92
2023-07-21T03:15:00.664Z,92.36
2023-07-21T03:18:37.674Z,92.67
2023-07-21T03:22:17.286Z,92.96
2023-07-21T03:25:52.755Z,93.06
2023-07-21T03:33:08.575Z,92.75
2023-07-21T03:36:48.007Z,93.58
2023-07-21T03:40:23.495Z,93.43
2023-07-21T03:44:01.495Z,93.30
2023-07-21T03:47:38.690Z,93.00
2023-07-21T03:51:16.503Z,92.62
2023-07-21T03:54:54.496Z,92.52
2023-07-21T04:02:10.420Z,93.17
2023-07-21T04:05:47.438Z,93.15
2023-07-21T04:09:25.164Z,92.47
2023-07-21T04:13:02.276Z,92.73
2023-07-21T04:16:40.392Z,93.51
2023-07-21T04:20:17.847Z,92.82
2023-07-21T04:23:55.732Z,92.43
2023-07-21T04:27:33.405Z,91.55
2023-07-21T04:31:11.095Z,91.83
2023-07-21T04:34:48.407Z,91.38
2023-07-21T04:38:26.067Z,90.92
2023-07-21T04:42:03.832Z,90.03
2023-07-21T04:45:45.007Z,90.57
2023-07-21T04:49:19.560Z,89.30
2023-07-21T04:52:57.493Z,89.37
2023-07-21T04:56:48.816Z,88.29
2023-07-21T05:00:13.590Z,88.81
2023-07-21T05:04:09.204Z,87.65
2023-07-21T05:07:28.437Z,88.23
2023-07-21T05:11:05.773Z,87.42
2023-07-21T05:14:43.298Z,88.42
2023-07-21T05:18:21.320Z,86.87
2023-07-21T05:21:58.822Z,87.26
2023-07-21T05:25:36.196Z,87.91
2023-07-21T05:29:14.014Z,88.04
2023-07-21T05:32:52.052Z,86.08
2023-07-21T05:36:29.193Z,86.03
2023-07-21T05:40:09.315Z,86.54
2023-07-21T05:43:44.607Z,86.65
2023-07-21T05:47:22.717Z,86.85
2023-07-21T05:51:00.596Z,87.15
2023-07-21T05:54:38.729Z,87.91
2023-07-21T05:58:15.580Z,87.15
2023-07-21T06:01:54.252Z,86.90
2023-07-21T06:05:31.502Z,87.78
2023-07-21T06:09:08.592Z,87.62
2023-07-21T06:12:46.657Z,86.60
2023-07-21T06:16:24.756Z,86.46
2023-07-21T06:20:01.541Z,86.26
2023-07-21T06:23:39.853Z,86.70
2023-07-21T06:27:17.531Z,86.44
2023-07-21T06:30:54.721Z,86.02
2023-07-21T06:34:32.591Z,86.16
2023-07-21T06:38:09.779Z,85.79
2023-07-21T06:41:47.726Z,84.05
2023-07-21T06:45:25.470Z,82.57
2023-07-21T06:49:03.751Z,83.13
2023-07-21T06:52:41.109Z,82.41
2023-07-21T06:56:18.284Z,82.94
2023-07-21T06:59:56.244Z,82.26
2023-07-21T07:03:34.025Z,80.26
2023-07-21T07:07:11.612Z,80.67
2023-07-21T07:10:49.693Z,79.61
2023-07-21T07:14:28.450Z,77.45
2023-07-21T07:18:05.593Z,75.98
2023-07-21T07:21:42.599Z,74.11
2023-07-21T07:25:22.277Z,72.48
2023-07-21T07:28:58.658Z,71.23
2023-07-21T07:32:35.950Z,69.26
2023-07-21T07:36:13.855Z,69.26
2023-07-21T07:39:56.707Z,68.16
2023-07-21T07:43:34.936Z,67.54
2023-07-21T07:47:06.253Z,66.87
2023-07-21T07:50:46.287Z,65.52
2023-07-21T07:54:21.807Z,64.54
2023-07-21T07:58:01.179Z,63.98
2023-07-21T08:01:36.579Z,63.38
2023-07-21T08:05:14.962Z,62.68
2023-07-21T08:08:54.559Z,61.13
2023-07-21T08:12:34.089Z,60.61
2023-07-21T08:16:13.026Z,60.47
2023-07-21T08:19:46.310Z,58.54
2023-07-21T08:23:29.529Z,59.06
2023-07-21T08:27:00.960Z,58.59
2023-07-21T08:30:51.536Z,58.82
2023-07-21T08:34:16.174Z,58.50
2023-07-21T08:37:53.911Z,57.15
2023-07-21T08:41:35.685Z,56.94
2023-07-21T08:45:12.069Z,56.90
2023-07-21T08:48:50.396Z,58.07
2023-07-21T08:52:28.453Z,60.08
2023-07-21T08:56:03.501Z,64.53
2023-07-21T08:59:41.775Z,63.19
2023-07-21T09:03:29.895Z,69.03
2023-07-21T09:10:41.545Z,69.49
2023-07-21T09:14:10.612Z,70.03
2023-07-21T09:17:48.157Z,71.71
2023-07-21T09:21:29.963Z,73.99
2023-07-21T09:25:03.546Z,75.69
2023-07-21T09:28:43.939Z,76.01
2023-07-21T09:32:45.938Z,76.27
2023-07-21T09:36:18.939Z,76.76
2023-07-21T09:39:47.415Z,75.21
2023-07-21T09:43:16.995Z,76.62
2023-07-21T09:46:59.081Z,77.12
2023-07-21T09:50:29.172Z,75.13
2023-07-21T09:54:08.211Z,73.84
2023-07-21T09:57:46.389Z,72.00
2023-07-21T10:01:21.674Z,71.03
2023-07-21T10:04:59.090Z,69.85
2023-07-21T10:08:37.849Z,69.99
2023-07-21T10:12:20.963Z,68.56
2023-07-21T10:15:51.513Z,68.46
2023-07-21T10:19:31.181Z,66.65
2023-07-21T10:23:07.897Z,65.51
2023-07-21T10:30:23.047Z,63.82
2023-07-21T10:34:09.920Z,62.35
2023-07-21T10:37:37.830Z,62.04
2023-07-21T10:44:57.300Z,61.56
2023-07-21T10:48:32.988Z,66.03
2023-07-21T10:52:17.646Z,62.51
2023-07-21T10:55:46.160Z,63.92
2023-07-21T10:59:22.702Z,67.18
2023-07-21T11:03:01.734Z,69.69
2023-07-21T11:06:53.755Z,66.57
2023-07-21T11:10:16.878Z,65.40
2023-07-21T11:13:53.922Z,66.38
2023-07-21T11:17:34.989Z,65.86
2023-07-21T11:21:09.772Z,66.00
2023-07-21T11:28:32.035Z,68.39
2023-07-21T11:32:21.906Z,68.84
2023-07-21T11:35:53.552Z,68.81
2023-07-21T11:39:24.062Z,69.36
2023-07-21T11:43:09.448Z,69.51
2023-07-21T11:46:43.998Z,69.52
2023-07-21T11:50:20.820Z,69.76
2023-07-21T11:54:00.219Z,69.92
2023-07-21T11:57:32.275Z,70.47
2023-07-21T12:01:10.914Z,67.73
2023-07-21T12:04:47.359Z,68.32
2023-07-21T12:08:25.207Z,68.04
2023-07-21T12:12:11.155Z,68.53
2023-07-21T12:15:41.260Z,69.06
2023-07-21T12:19:22.766Z,69.17
2023-07-21T12:23:06.832Z,70.45
2023-07-21T12:26:34.245Z,68.50
2023-07-21T12:30:13.561Z,67.71
2023-07-21T12:33:52.974Z,65.81
2023-07-21T12:37:29.660Z,65.16
2023-07-21T12:41:05.107Z,63.97
2023-07-21T12:44:46.924Z,63.27
2023-07-21T12:48:19.912Z,62.51
2023-07-21T12:52:03.507Z,62.60
2023-07-21T12:55:36.767Z,61.94
2023-07-21T12:59:14.577Z,61.98
2023-07-21T13:03:00.414Z,62.49
2023-07-21T13:06:48.903Z,64.59
2023-07-21T13:10:15.048Z,65.73
2023-07-21T13:13:49.833Z,64.52
2023-07-21T13:17:27.780Z,64.42
2023-07-21T13:20:59.707Z,63.79
2023-07-21T13:24:37.372Z,64.20
2023-07-21T13:28:13.128Z,63.45
2023-07-21T13:31:50.934Z,62.86
2023-07-21T13:35:29.537Z,62.82
2023-07-21T13:39:06.970Z,62.67
2023-07-21T13:42:50.296Z,63.24
2023-07-21T13:46:25.277Z,64.21
2023-07-21T13:50:00.454Z,64.89
2023-07-21T13:57:41.248Z,66.22
2023-07-21T14:00:54.101Z,67.01
2023-07-21T14:04:31.852Z,67.63
2023-07-21T14:11:47.056Z,67.58
2023-07-21T14:15:25.581Z,66.39
2023-07-21T14:19:04.882Z,65.51
2023-07-21T14:22:41.065Z,65.13
2023-07-21T14:26:18.581Z,65.27
2023-07-21T14:29:55.553Z,64.90
2023-07-21T14:33:34.638Z,64.70
2023-07-21T14:37:10.847Z,64.80
2023-07-21T14:40:48.683Z,64.24
2023-07-21T14:44:26.706Z,64.10
2023-07-21T14:48:03.851Z,63.47
2023-07-21T14:51:41.705Z,63.68
2023-07-21T14:55:19.417Z,62.73
2023-07-21T14:58:56.953Z,62.54
2023-07-21T15:02:34.780Z,62.67
2023-07-21T15:06:12.197Z,61.89
2023-07-21T15:09:50.248Z,62.01
2023-07-21T15:13:27.671Z,61.76
2023-07-21T15:17:05.473Z,61.52
2023-07-21T15:20:42.970Z,62.09
2023-07-21T15:24:21.707Z,62.09
2023-07-21T15:27:58.552Z,61.46
2023-07-21T15:31:38.106Z,61.65
2023-07-21T15:35:13.909Z,62.12
2023-07-21T15:38:54.178Z,62.37
2023-07-21T15:46:06.880Z,62.10
2023-07-21T15:49:52.291Z,62.91
2023-07-21T15:53:23.032Z,62.25
2023-07-21T15:57:03.258Z,62.47
2023-07-21T16:00:39.531Z,62.68
2023-07-21T16:04:17.665Z,62.93
2023-07-21T16:07:55.075Z,62.99
2023-07-21T16:11:31.832Z,63.20
2023-07-21T16:15:11.258Z,62.91
2023-07-21T16:18:48.062Z,62.84
2023-07-21T16:22:26.818Z,62.75
2023-07-21T16:26:01.565Z,62.82
2023-07-21T16:29:40.844Z,63.03
2023-07-21T16:33:16.854Z,62.69
2023-07-21T16:36:55.717Z,62.39
2023-07-21T16:40:35.921Z,61.59
2023-07-21T16:44:10.882Z,62.21
2023-07-21T16:47:50.391Z,61.94
2023-07-21T16:51:27.859Z,62.17
2023-07-21T16:55:03.429Z,62.02
2023-07-21T16:58:43.447Z,62.40
2023-07-21T17:02:18.964Z,62.85
2023-07-21T17:05:59.394Z,62.84
2023-07-21T17:09:39.790Z,63.09
2023-07-21T17:13:11.946Z,63.49
2023-07-21T17:16:52.462Z,63.64
2023-07-21T17:20:26.554Z,63.86
2023-07-21T17:24:05.856Z,63.75
2023-07-21T17:27:45.590Z,64.02
2023-07-21T17:34:58.607Z,64.47
2023-07-21T17:38:36.448Z,64.70
2023-07-21T17:42:12.962Z,64.41
2023-07-21T17:45:54.970Z,64.04
2023-07-21T17:49:27.859Z,64.10
2023-07-21T17:53:05.232Z,63.99
2023-07-21T17:56:46.025Z,63.90
2023-07-21T18:00:21.751Z,64.67
2023-07-21T18:03:59.111Z,65.28
2023-07-21T18:07:36.021Z,66.21
2023-07-21T18:11:14.223Z,65.74
2023-07-21T18:18:30.829Z,66.35
2023-07-21T18:22:06.855Z,65.97
2023-07-21T18:25:49.092Z,66.01
2023-07-21T18:29:22.256Z,66.48
2023-07-21T18:33:00.030Z,66.56
2023-07-21T18:36:38.433Z,66.61
2023-07-21T18:40:18.369Z,66.32
2023-07-21T18:43:55.230Z,66.57
2023-07-21T18:47:31.133Z,66.88
2023-07-21T18:51:08.522Z,66.88
2023-07-21T18:54:47.945Z,66.77
2023-07-21T18:58:24.201Z,67.04
2023-07-21T19:02:03.046Z,67.07
2023-07-21T19:05:46.997Z,67.33
2023-07-21T19:09:17.472Z,67.05
2023-07-21T19:12:54.545Z,67.32
2023-07-21T19:16:32.243Z,67.43
2023-07-21T19:20:10.657Z,67.51
2023-07-21T19:23:47.485Z,68.17
2023-07-21T19:27:25.093Z,68.18
2023-07-21T19:31:03.003Z,68.85
2023-07-21T19:34:40.982Z,69.21
2023-07-21T19:38:19.554Z,69.82
2023-07-21T19:41:56.593Z,71.71
2023-07-21T19:45:40.094Z,71.83
2023-07-21T19:49:15.390Z,72.45
2023-07-21T19:52:51.972Z,73.12
2023-07-21T19:56:30.441Z,73.29
2023-07-21T20:00:06.654Z,73.13
2023-07-21T20:03:47.425Z,73.00
2023-07-21T20:07:20.155Z,73.05
2023-07-21T20:10:57.769Z,73.01
2023-07-21T20:14:36.820Z,73.13
2023-07-21T20:18:14.315Z,73.22
2023-07-21T20:21:52.878Z,73.49
2023-07-21T20:25:32.311Z,73.41
2023-07-21T20:29:07.632Z,73.69
2023-07-21T20:32:46.327Z,73.98
2023-07-21T20:36:23.753Z,74.08
2023-07-21T20:39:59.538Z,73.94
2023-07-21T20:43:37.469Z,73.98
2023-07-21T20:47:14.509Z,74.29
2023-07-21T20:50:59.430Z,74.34
2023-07-21T20:54:29.165Z,74.68
2023-07-21T20:58:15.391Z,75.04
2023-07-21T21:01:46.935Z,75.55
2023-07-21T21:05:23.516Z,75.78
2023-07-21T21:12:40.165Z,75.86
2023-07-21T21:16:19.525Z,75.79
2023-07-21T21:19:56.190Z,75.54
2023-07-21T21:23:34.200Z,75.43
2023-07-21T21:27:09.402Z,75.54
2023-07-21T21:30:47.091Z,75.46
2023-07-21T21:34:23.944Z,75.65
2023-07-21T21:38:01.298Z,75.78
2023-07-21T21:41:38.473Z,76.11
2023-07-21T21:45:17.262Z,76.22
2023-07-21T21:48:54.490Z,76.39
2023-07-21T21:52:32.559Z,76.52
2023-07-21T21:56:10.766Z,76.40
2023-07-21T21:59:47.659Z,76.79
2023-07-21T22:03:25.577Z,76.90
2023-07-21T22:07:04.186Z,77.72
2023-07-21T22:10:41.221Z,78.55
2023-07-21T22:14:18.676Z,79.08
2023-07-21T22:17:56.084Z,78.96
2023-07-21T22:21:33.892Z,78.34
2023-07-21T22:25:10.965Z,78.39
2023-07-21T22:28:49.318Z,78.37
2023-07-21T22:32:26.879Z,78.19
2023-07-21T22:36:08.586Z,78.64
2023-07-21T22:39:42.032Z,78.85
2023-07-21T22:43:19.366Z,78.29
2023-07-21T22:46:57.252Z,77.72
2023-07-21T22:54:12.306Z,78.13
2023-07-21T22:57:50.217Z,78.43
2023-07-21T23:01:27.917Z,78.65
2023-07-21T23:05:06.588Z,78.44
2023-07-21T23:08:44.093Z,78.69
2023-07-21T23:12:21.137Z,77.93
2023-07-21T23:15:58.612Z,78.13
2023-07-21T23:19:38.662Z,77.79
2023-07-21T23:23:13.760Z,77.18
2023-07-21T23:26:51.825Z,77.81
2023-07-21T23:30:29.875Z,78.18
2023-07-21T23:34:07.476Z,78.16
2023-07-21T23:37:45.118Z,77.75
2023-07-21T23:41:22.588Z,78.14
2023-07-21T23:44:59.935Z,77.79
2023-07-21T23:48:37.711Z,77.68
2023-07-21T23:55:53.738Z,77.10
2023-07-21T23:59:31.524Z,77.53
